sensor_id;sensor_type;location;lat;lon;timestamp;P1;durP1;ratioP1;P2;durP2;ratioP2
18822;SDS011;9540;51.550;7.980;2023-04-03T00:02:09;3.20;;;2.17;;
18822;SDS011;9540;51.550;7.980;2023-04-03T00:04:36;5.23;;;2.07;;
18822;SDS011;9540;51.550;7.980;2023-04-03T00:07:03;3.00;;;2.50;;
18822;SDS011;9540;51.550;7.980;2023-04-03T00:09:32;4.50;;;2.40;;
18822;SDS011;9540;51.550;7.980;2023-04-03T00:11:59;2.67;;;2.47;;
18822;SDS011;9540;51.550;7.980;2023-04-03T00:14:26;4.63;;;2.87;;
18822;SDS011;9540;51.550;7.980;2023-04-03T00:16:53;5.93;;;2.80;;
18822;SDS011;9540;51.550;7.980;2023-04-03T00:19:20;3.20;;;2.40;;
18822;SDS011;9540;51.550;7.980;2023-04-03T00:21:48;3.27;;;2.70;;
18822;SDS011;9540;51.550;7.980;2023-04-03T00:24:15;3.03;;;2.60;;
18822;SDS011;9540;51.550;7.980;2023-04-03T00:26:44;4.43;;;2.10;;
18822;SDS011;9540;51.550;7.980;2023-04-03T00:29:11;3.97;;;2.80;;
18822;SDS011;9540;51.550;7.980;2023-04-03T00:31:38;3.13;;;2.63;;
18822;SDS011;9540;51.550;7.980;2023-04-03T00:34:06;3.13;;;2.53;;
18822;SDS011;9540;51.550;7.980;2023-04-03T00:36:33;7.27;;;2.93;;
18822;SDS011;9540;51.550;7.980;2023-04-03T00:39:00;4.80;;;2.70;;
18822;SDS011;9540;51.550;7.980;2023-04-03T00:41:28;4.80;;;2.83;;
18822;SDS011;9540;51.550;7.980;2023-04-03T00:43:56;3.13;;;2.57;;
18822;SDS011;9540;51.550;7.980;2023-04-03T00:46:23;3.30;;;3.00;;
18822;SDS011;9540;51.550;7.980;2023-04-03T00:48:50;4.37;;;3.20;;
18822;SDS011;9540;51.550;7.980;2023-04-03T00:51:18;5.00;;;3.10;;
18822;SDS011;9540;51.550;7.980;2023-04-03T00:53:50;3.90;;;3.50;;
18822;SDS011;9540;51.550;7.980;2023-04-03T00:56:21;5.33;;;3.83;;
18822;SDS011;9540;51.550;7.980;2023-04-03T00:58:51;8.10;;;3.47;;
18822;SDS011;9540;51.550;7.980;2023-04-03T01:01:25;6.13;;;3.67;;
18822;SDS011;9540;51.550;7.980;2023-04-03T01:03:54;6.27;;;3.40;;
18822;SDS011;9540;51.550;7.980;2023-04-03T01:06:23;6.97;;;3.63;;
18822;SDS011;9540;51.550;7.980;2023-04-03T01:08:53;4.27;;;3.23;;
18822;SDS011;9540;51.550;7.980;2023-04-03T01:11:22;5.67;;;3.43;;
18822;SDS011;9540;51.550;7.980;2023-04-03T01:13:49;4.73;;;3.50;;
18822;SDS011;9540;51.550;7.980;2023-04-03T01:16:16;5.17;;;3.53;;
18822;SDS011;9540;51.550;7.980;2023-04-03T01:18:44;4.80;;;3.10;;
18822;SDS011;9540;51.550;7.980;2023-04-03T01:24:16;5.50;;;3.33;;
18822;SDS011;9540;51.550;7.980;2023-04-03T01:26:56;6.03;;;2.70;;
18822;SDS011;9540;51.550;7.980;2023-04-03T01:29:27;3.70;;;3.40;;
18822;SDS011;9540;51.550;7.980;2023-04-03T01:31:56;7.37;;;3.50;;
18822;SDS011;9540;51.550;7.980;2023-04-03T01:34:24;5.13;;;3.10;;
18822;SDS011;9540;51.550;7.980;2023-04-03T01:36:52;8.27;;;3.97;;
18822;SDS011;9540;51.550;7.980;2023-04-03T01:39:20;6.13;;;3.87;;
18822;SDS011;9540;51.550;7.980;2023-04-03T01:41:48;3.67;;;3.27;;
18822;SDS011;9540;51.550;7.980;2023-04-03T01:44:16;4.07;;;3.53;;
18822;SDS011;9540;51.550;7.980;2023-04-03T01:46:43;3.93;;;3.50;;
18822;SDS011;9540;51.550;7.980;2023-04-03T01:49:11;4.50;;;3.03;;
18822;SDS011;9540;51.550;7.980;2023-04-03T01:51:38;6.10;;;3.50;;
18822;SDS011;9540;51.550;7.980;2023-04-03T01:54:05;7.07;;;3.43;;
18822;SDS011;9540;51.550;7.980;2023-04-03T01:56:32;8.43;;;4.00;;
18822;SDS011;9540;51.550;7.980;2023-04-03T01:59:00;5.10;;;3.27;;
18822;SDS011;9540;51.550;7.980;2023-04-03T02:01:27;5.83;;;3.40;;
18822;SDS011;9540;51.550;7.980;2023-04-03T02:03:54;4.30;;;3.13;;
18822;SDS011;9540;51.550;7.980;2023-04-03T02:06:22;8.13;;;3.67;;
18822;SDS011;9540;51.550;7.980;2023-04-03T02:08:50;4.77;;;3.30;;
18822;SDS011;9540;51.550;7.980;2023-04-03T02:11:17;3.87;;;3.47;;
18822;SDS011;9540;51.550;7.980;2023-04-03T02:13:45;5.50;;;3.33;;
18822;SDS011;9540;51.550;7.980;2023-04-03T02:16:12;5.00;;;3.43;;
18822;SDS011;9540;51.550;7.980;2023-04-03T02:18:39;7.53;;;3.30;;
18822;SDS011;9540;51.550;7.980;2023-04-03T02:21:06;9.17;;;3.90;;
18822;SDS011;9540;51.550;7.980;2023-04-03T02:23:35;8.27;;;3.53;;
18822;SDS011;9540;51.550;7.980;2023-04-03T02:26:07;6.83;;;2.97;;
18822;SDS011;9540;51.550;7.980;2023-04-03T02:28:35;9.57;;;4.20;;
18822;SDS011;9540;51.550;7.980;2023-04-03T02:31:03;5.73;;;3.87;;
18822;SDS011;9540;51.550;7.980;2023-04-03T02:33:31;5.40;;;3.43;;
18822;SDS011;9540;51.550;7.980;2023-04-03T02:35:58;4.13;;;3.53;;
18822;SDS011;9540;51.550;7.980;2023-04-03T02:38:25;6.13;;;3.60;;
18822;SDS011;9540;51.550;7.980;2023-04-03T02:40:57;7.30;;;3.60;;
18822;SDS011;9540;51.550;7.980;2023-04-03T02:43:27;6.70;;;3.73;;
18822;SDS011;9540;51.550;7.980;2023-04-03T02:45:54;5.87;;;3.77;;
18822;SDS011;9540;51.550;7.980;2023-04-03T02:48:21;7.00;;;3.73;;
18822;SDS011;9540;51.550;7.980;2023-04-03T02:50:48;7.63;;;4.00;;
18822;SDS011;9540;51.550;7.980;2023-04-03T02:53:15;5.37;;;3.70;;
18822;SDS011;9540;51.550;7.980;2023-04-03T02:55:42;5.57;;;4.07;;
18822;SDS011;9540;51.550;7.980;2023-04-03T02:58:11;6.83;;;4.00;;
18822;SDS011;9540;51.550;7.980;2023-04-03T03:00:38;8.20;;;4.07;;
18822;SDS011;9540;51.550;7.980;2023-04-03T03:03:05;6.07;;;3.40;;
18822;SDS011;9540;51.550;7.980;2023-04-03T03:05:33;6.63;;;3.73;;
18822;SDS011;9540;51.550;7.980;2023-04-03T03:08:01;7.63;;;3.70;;
18822;SDS011;9540;51.550;7.980;2023-04-03T03:10:28;4.87;;;3.87;;
18822;SDS011;9540;51.550;7.980;2023-04-03T03:12:55;6.33;;;4.20;;
18822;SDS011;9540;51.550;7.980;2023-04-03T03:15:24;6.13;;;3.83;;
18822;SDS011;9540;51.550;7.980;2023-04-03T03:17:51;11.63;;;4.33;;
18822;SDS011;9540;51.550;7.980;2023-04-03T03:20:18;8.67;;;3.80;;
18822;SDS011;9540;51.550;7.980;2023-04-03T03:22:46;7.60;;;3.60;;
18822;SDS011;9540;51.550;7.980;2023-04-03T03:25:13;5.20;;;3.77;;
18822;SDS011;9540;51.550;7.980;2023-04-03T03:27:40;7.67;;;3.37;;
18822;SDS011;9540;51.550;7.980;2023-04-03T03:30:08;10.27;;;3.60;;
18822;SDS011;9540;51.550;7.980;2023-04-03T03:32:37;6.27;;;3.73;;
18822;SDS011;9540;51.550;7.980;2023-04-03T03:35:04;11.53;;;3.80;;
18822;SDS011;9540;51.550;7.980;2023-04-03T03:37:32;7.40;;;3.43;;
18822;SDS011;9540;51.550;7.980;2023-04-03T03:39:59;7.10;;;3.20;;
18822;SDS011;9540;51.550;7.980;2023-04-03T03:42:26;4.70;;;3.37;;
18822;SDS011;9540;51.550;7.980;2023-04-03T03:44:54;4.77;;;3.03;;
18822;SDS011;9540;51.550;7.980;2023-04-03T03:47:21;5.37;;;3.23;;
18822;SDS011;9540;51.550;7.980;2023-04-03T03:49:49;9.50;;;3.77;;
18822;SDS011;9540;51.550;7.980;2023-04-03T03:52:16;5.80;;;3.83;;
18822;SDS011;9540;51.550;7.980;2023-04-03T03:54:43;7.17;;;3.47;;
18822;SDS011;9540;51.550;7.980;2023-04-03T03:57:11;11.73;;;4.53;;
18822;SDS011;9540;51.550;7.980;2023-04-03T03:59:38;9.87;;;3.70;;
18822;SDS011;9540;51.550;7.980;2023-04-03T04:02:06;5.60;;;3.50;;
18822;SDS011;9540;51.550;7.980;2023-04-03T04:04:34;5.23;;;3.37;;
18822;SDS011;9540;51.550;7.980;2023-04-03T04:07:02;6.07;;;3.73;;
18822;SDS011;9540;51.550;7.980;2023-04-03T04:09:30;6.33;;;4.07;;
18822;SDS011;9540;51.550;7.980;2023-04-03T04:11:57;6.73;;;3.60;;
18822;SDS011;9540;51.550;7.980;2023-04-03T04:14:24;9.70;;;3.20;;
18822;SDS011;9540;51.550;7.980;2023-04-03T04:16:51;6.80;;;3.80;;
18822;SDS011;9540;51.550;7.980;2023-04-03T04:19:18;5.53;;;3.13;;
18822;SDS011;9540;51.550;7.980;2023-04-03T04:21:45;5.77;;;3.47;;
18822;SDS011;9540;51.550;7.980;2023-04-03T04:24:14;4.97;;;3.00;;
18822;SDS011;9540;51.550;7.980;2023-04-03T04:26:41;8.10;;;3.23;;
18822;SDS011;9540;51.550;7.980;2023-04-03T04:29:08;9.33;;;3.63;;
18822;SDS011;9540;51.550;7.980;2023-04-03T04:31:36;6.70;;;3.40;;
18822;SDS011;9540;51.550;7.980;2023-04-03T04:34:03;9.03;;;3.20;;
18822;SDS011;9540;51.550;7.980;2023-04-03T04:36:30;8.27;;;3.40;;
18822;SDS011;9540;51.550;7.980;2023-04-03T04:38:57;8.13;;;3.20;;
18822;SDS011;9540;51.550;7.980;2023-04-03T04:41:26;4.70;;;3.50;;
18822;SDS011;9540;51.550;7.980;2023-04-03T04:43:53;9.13;;;4.17;;
18822;SDS011;9540;51.550;7.980;2023-04-03T04:46:20;6.83;;;3.70;;
18822;SDS011;9540;51.550;7.980;2023-04-03T04:48:47;6.90;;;3.93;;
18822;SDS011;9540;51.550;7.980;2023-04-03T04:51:15;8.80;;;4.20;;
18822;SDS011;9540;51.550;7.980;2023-04-03T04:53:42;7.07;;;4.40;;
18822;SDS011;9540;51.550;7.980;2023-04-03T04:56:10;10.53;;;4.47;;
18822;SDS011;9540;51.550;7.980;2023-04-03T04:58:38;8.17;;;4.27;;
18822;SDS011;9540;51.550;7.980;2023-04-03T05:01:06;6.37;;;4.30;;
18822;SDS011;9540;51.550;7.980;2023-04-03T05:03:35;12.67;;;4.57;;
18822;SDS011;9540;51.550;7.980;2023-04-03T05:06:02;7.57;;;4.10;;
18822;SDS011;9540;51.550;7.980;2023-04-03T05:08:30;10.03;;;5.60;;
18822;SDS011;9540;51.550;7.980;2023-04-03T05:10:57;8.77;;;4.90;;
18822;SDS011;9540;51.550;7.980;2023-04-03T05:13:24;8.33;;;4.90;;
18822;SDS011;9540;51.550;7.980;2023-04-03T05:15:53;7.33;;;4.73;;
18822;SDS011;9540;51.550;7.980;2023-04-03T05:18:20;13.47;;;4.60;;
18822;SDS011;9540;51.550;7.980;2023-04-03T05:20:48;9.07;;;4.93;;
18822;SDS011;9540;51.550;7.980;2023-04-03T05:23:15;14.63;;;4.80;;
18822;SDS011;9540;51.550;7.980;2023-04-03T05:25:43;9.43;;;5.43;;
18822;SDS011;9540;51.550;7.980;2023-04-03T05:28:10;11.03;;;5.83;;
18822;SDS011;9540;51.550;7.980;2023-04-03T05:30:37;13.13;;;6.20;;
18822;SDS011;9540;51.550;7.980;2023-04-03T05:33:06;12.83;;;6.57;;
18822;SDS011;9540;51.550;7.980;2023-04-03T05:35:35;14.27;;;6.70;;
18822;SDS011;9540;51.550;7.980;2023-04-03T05:38:04;9.10;;;6.10;;
18822;SDS011;9540;51.550;7.980;2023-04-03T05:40:31;10.97;;;5.40;;
18822;SDS011;9540;51.550;7.980;2023-04-03T05:42:58;11.63;;;4.93;;
18822;SDS011;9540;51.550;7.980;2023-04-03T05:45:25;9.63;;;4.50;;
18822;SDS011;9540;51.550;7.980;2023-04-03T05:47:52;20.23;;;4.80;;
18822;SDS011;9540;51.550;7.980;2023-04-03T05:50:21;8.20;;;3.73;;
18822;SDS011;9540;51.550;7.980;2023-04-03T05:52:49;8.80;;;3.60;;
18822;SDS011;9540;51.550;7.980;2023-04-03T05:55:17;6.07;;;3.77;;
18822;SDS011;9540;51.550;7.980;2023-04-03T05:57:45;10.27;;;3.70;;
18822;SDS011;9540;51.550;7.980;2023-04-03T06:00:12;8.70;;;3.83;;
18822;SDS011;9540;51.550;7.980;2023-04-03T06:02:41;7.00;;;3.10;;
18822;SDS011;9540;51.550;7.980;2023-04-03T06:05:08;5.80;;;3.53;;
18822;SDS011;9540;51.550;7.980;2023-04-03T06:07:38;9.43;;;3.27;;
18822;SDS011;9540;51.550;7.980;2023-04-03T06:10:06;12.23;;;3.30;;
18822;SDS011;9540;51.550;7.980;2023-04-03T06:12:34;5.63;;;3.07;;
18822;SDS011;9540;51.550;7.980;2023-04-03T06:15:01;8.80;;;3.00;;
18822;SDS011;9540;51.550;7.980;2023-04-03T06:17:28;5.20;;;2.50;;
18822;SDS011;9540;51.550;7.980;2023-04-03T06:19:56;6.83;;;2.73;;
18822;SDS011;9540;51.550;7.980;2023-04-03T06:22:23;5.97;;;2.80;;
18822;SDS011;9540;51.550;7.980;2023-04-03T06:24:56;7.93;;;2.97;;
18822;SDS011;9540;51.550;7.980;2023-04-03T06:27:23;8.13;;;2.80;;
18822;SDS011;9540;51.550;7.980;2023-04-03T06:29:50;8.07;;;2.60;;
18822;SDS011;9540;51.550;7.980;2023-04-03T06:32:17;6.17;;;2.60;;
18822;SDS011;9540;51.550;7.980;2023-04-03T06:34:44;9.13;;;3.07;;
18822;SDS011;9540;51.550;7.980;2023-04-03T06:37:13;6.93;;;2.83;;
18822;SDS011;9540;51.550;7.980;2023-04-03T06:39:41;8.17;;;2.53;;
18822;SDS011;9540;51.550;7.980;2023-04-03T06:42:11;4.53;;;2.60;;
18822;SDS011;9540;51.550;7.980;2023-04-03T06:44:39;14.33;;;4.40;;
18822;SDS011;9540;51.550;7.980;2023-04-03T06:47:06;8.77;;;2.50;;
18822;SDS011;9540;51.550;7.980;2023-04-03T06:49:33;11.63;;;2.87;;
18822;SDS011;9540;51.550;7.980;2023-04-03T06:52:02;4.70;;;2.10;;
18822;SDS011;9540;51.550;7.980;2023-04-03T06:54:29;7.33;;;3.00;;
18822;SDS011;9540;51.550;7.980;2023-04-03T06:56:57;8.43;;;2.97;;
18822;SDS011;9540;51.550;7.980;2023-04-03T06:59:25;4.93;;;2.27;;
18822;SDS011;9540;51.550;7.980;2023-04-03T07:01:53;4.40;;;1.90;;
18822;SDS011;9540;51.550;7.980;2023-04-03T07:04:20;5.30;;;2.70;;
18822;SDS011;9540;51.550;7.980;2023-04-03T07:06:47;7.77;;;2.57;;
18822;SDS011;9540;51.550;7.980;2023-04-03T07:09:14;5.40;;;2.77;;
18822;SDS011;9540;51.550;7.980;2023-04-03T07:11:42;4.37;;;2.23;;
18822;SDS011;9540;51.550;7.980;2023-04-03T07:14:09;4.20;;;1.87;;
18822;SDS011;9540;51.550;7.980;2023-04-03T07:16:37;3.87;;;2.67;;
18822;SDS011;9540;51.550;7.980;2023-04-03T07:19:04;5.47;;;2.60;;
18822;SDS011;9540;51.550;7.980;2023-04-03T07:21:33;7.10;;;2.63;;
18822;SDS011;9540;51.550;7.980;2023-04-03T07:24:00;9.60;;;2.40;;
18822;SDS011;9540;51.550;7.980;2023-04-03T07:26:27;6.80;;;2.40;;
18822;SDS011;9540;51.550;7.980;2023-04-03T07:28:55;9.93;;;3.87;;
18822;SDS011;9540;51.550;7.980;2023-04-03T07:31:22;11.77;;;2.90;;
18822;SDS011;9540;51.550;7.980;2023-04-03T07:33:51;13.17;;;3.47;;
18822;SDS011;9540;51.550;7.980;2023-04-03T07:36:20;10.93;;;2.97;;
18822;SDS011;9540;51.550;7.980;2023-04-03T07:38:49;7.13;;;2.60;;
18822;SDS011;9540;51.550;7.980;2023-04-03T07:41:16;8.97;;;2.60;;
18822;SDS011;9540;51.550;7.980;2023-04-03T07:43:47;4.17;;;2.40;;
18822;SDS011;9540;51.550;7.980;2023-04-03T07:46:16;9.00;;;2.40;;
18822;SDS011;9540;51.550;7.980;2023-04-03T07:48:43;13.47;;;2.90;;
18822;SDS011;9540;51.550;7.980;2023-04-03T07:51:12;6.77;;;2.80;;
18822;SDS011;9540;51.550;7.980;2023-04-03T07:53:39;8.97;;;3.53;;
18822;SDS011;9540;51.550;7.980;2023-04-03T07:56:07;11.27;;;2.70;;
18822;SDS011;9540;51.550;7.980;2023-04-03T07:58:34;6.97;;;2.67;;
18822;SDS011;9540;51.550;7.980;2023-04-03T08:01:02;9.70;;;2.47;;
18822;SDS011;9540;51.550;7.980;2023-04-03T08:03:29;8.73;;;2.40;;
18822;SDS011;9540;51.550;7.980;2023-04-03T08:06:00;5.70;;;2.17;;
18822;SDS011;9540;51.550;7.980;2023-04-03T08:08:29;10.90;;;2.90;;
18822;SDS011;9540;51.550;7.980;2023-04-03T08:10:58;5.20;;;1.97;;
18822;SDS011;9540;51.550;7.980;2023-04-03T08:13:28;6.40;;;2.47;;
18822;SDS011;9540;51.550;7.980;2023-04-03T08:15:55;7.90;;;2.60;;
18822;SDS011;9540;51.550;7.980;2023-04-03T08:18:24;10.57;;;2.93;;
18822;SDS011;9540;51.550;7.980;2023-04-03T08:20:51;7.53;;;2.33;;
18822;SDS011;9540;51.550;7.980;2023-04-03T08:23:19;5.67;;;2.47;;
18822;SDS011;9540;51.550;7.980;2023-04-03T08:25:47;8.23;;;2.77;;
18822;SDS011;9540;51.550;7.980;2023-04-03T08:28:15;4.23;;;2.20;;
18822;SDS011;9540;51.550;7.980;2023-04-03T08:30:42;6.77;;;2.40;;
18822;SDS011;9540;51.550;7.980;2023-04-03T08:33:09;9.23;;;2.90;;
18822;SDS011;9540;51.550;7.980;2023-04-03T08:35:40;7.57;;;2.33;;
18822;SDS011;9540;51.550;7.980;2023-04-03T08:38:08;2.63;;;1.60;;
18822;SDS011;9540;51.550;7.980;2023-04-03T08:40:36;6.00;;;2.20;;
18822;SDS011;9540;51.550;7.980;2023-04-03T08:43:08;8.90;;;2.28;;
18822;SDS011;9540;51.550;7.980;2023-04-03T08:45:49;7.10;;;2.10;;
18822;SDS011;9540;51.550;7.980;2023-04-03T08:48:19;7.10;;;1.85;;
18822;SDS011;9540;51.550;7.980;2023-04-03T08:50:48;4.93;;;1.83;;
18822;SDS011;9540;51.550;7.980;2023-04-03T08:53:20;5.32;;;1.73;;
18822;SDS011;9540;51.550;7.980;2023-04-03T08:55:52;9.98;;;1.92;;
18822;SDS011;9540;51.550;7.980;2023-04-03T08:58:22;6.05;;;2.05;;
18822;SDS011;9540;51.550;7.980;2023-04-03T09:00:53;6.32;;;2.28;;
18822;SDS011;9540;51.550;7.980;2023-04-03T09:03:25;7.93;;;2.53;;
18822;SDS011;9540;51.550;7.980;2023-04-03T09:05:56;6.75;;;2.08;;
18822;SDS011;9540;51.550;7.980;2023-04-03T09:08:27;4.68;;;2.33;;
18822;SDS011;9540;51.550;7.980;2023-04-03T09:10:59;6.10;;;2.45;;
18822;SDS011;9540;51.550;7.980;2023-04-03T09:13:39;4.32;;;2.08;;
18822;SDS011;9540;51.550;7.980;2023-04-03T09:16:15;5.28;;;1.95;;
18822;SDS011;9540;51.550;7.980;2023-04-03T09:18:48;5.82;;;2.67;;
18822;SDS011;9540;51.550;7.980;2023-04-03T09:21:22;4.63;;;1.85;;
18822;SDS011;9540;51.550;7.980;2023-04-03T09:23:58;4.80;;;1.90;;
18822;SDS011;9540;51.550;7.980;2023-04-03T09:26:28;5.25;;;1.70;;
18822;SDS011;9540;51.550;7.980;2023-04-03T09:29:00;5.95;;;2.08;;
18822;SDS011;9540;51.550;7.980;2023-04-03T09:31:35;6.07;;;2.05;;
18822;SDS011;9540;51.550;7.980;2023-04-03T09:34:05;5.43;;;1.92;;
18822;SDS011;9540;51.550;7.980;2023-04-03T09:36:40;4.10;;;1.90;;
18822;SDS011;9540;51.550;7.980;2023-04-03T09:39:10;4.45;;;2.42;;
18822;SDS011;9540;51.550;7.980;2023-04-03T09:41:39;3.50;;;1.80;;
18822;SDS011;9540;51.550;7.980;2023-04-03T09:44:20;4.97;;;1.73;;
18822;SDS011;9540;51.550;7.980;2023-04-03T09:46:48;3.30;;;1.60;;
18822;SDS011;9540;51.550;7.980;2023-04-03T09:49:16;3.88;;;1.80;;
18822;SDS011;9540;51.550;7.980;2023-04-03T09:51:44;4.47;;;1.52;;
18822;SDS011;9540;51.550;7.980;2023-04-03T09:54:31;5.53;;;1.52;;
18822;SDS011;9540;51.550;7.980;2023-04-03T09:57:02;3.28;;;1.50;;
18822;SDS011;9540;51.550;7.980;2023-04-03T09:59:34;3.38;;;1.17;;
18822;SDS011;9540;51.550;7.980;2023-04-03T10:02:04;2.92;;;1.30;;
18822;SDS011;9540;51.550;7.980;2023-04-03T10:04:57;4.00;;;1.52;;
18822;SDS011;9540;51.550;7.980;2023-04-03T10:07:28;2.05;;;1.10;;
18822;SDS011;9540;51.550;7.980;2023-04-03T10:09:58;2.67;;;1.10;;
18822;SDS011;9540;51.550;7.980;2023-04-03T10:12:26;1.50;;;1.13;;
18822;SDS011;9540;51.550;7.980;2023-04-03T10:14:55;3.63;;;1.52;;
18822;SDS011;9540;51.550;7.980;2023-04-03T10:17:27;4.25;;;1.00;;
18822;SDS011;9540;51.550;7.980;2023-04-03T10:20:04;3.90;;;1.17;;
18822;SDS011;9540;51.550;7.980;2023-04-03T10:22:41;4.05;;;1.10;;
18822;SDS011;9540;51.550;7.980;2023-04-03T10:25:17;2.72;;;1.38;;
18822;SDS011;9540;51.550;7.980;2023-04-03T10:27:53;3.25;;;1.10;;
18822;SDS011;9540;51.550;7.980;2023-04-03T10:30:31;2.05;;;1.10;;
18822;SDS011;9540;51.550;7.980;2023-04-03T10:33:12;2.10;;;1.05;;
18822;SDS011;9540;51.550;7.980;2023-04-03T10:35:58;1.00;;;0.93;;
18822;SDS011;9540;51.550;7.980;2023-04-03T10:38:39;2.25;;;1.13;;
18822;SDS011;9540;51.550;7.980;2023-04-03T10:41:16;3.55;;;1.27;;
18822;SDS011;9540;51.550;7.980;2023-04-03T10:43:53;1.83;;;1.58;;
18822;SDS011;9540;51.550;7.980;2023-04-03T10:46:32;1.98;;;1.00;;
18822;SDS011;9540;51.550;7.980;2023-04-03T10:49:13;4.88;;;1.50;;
18822;SDS011;9540;51.550;7.980;2023-04-03T10:51:50;1.63;;;1.00;;
18822;SDS011;9540;51.550;7.980;2023-04-03T10:54:26;3.85;;;1.58;;
18822;SDS011;9540;51.550;7.980;2023-04-03T10:57:00;2.67;;;1.52;;
18822;SDS011;9540;51.550;7.980;2023-04-03T10:59:30;4.47;;;1.45;;
18822;SDS011;9540;51.550;7.980;2023-04-03T11:02:04;2.17;;;1.15;;
18822;SDS011;9540;51.550;7.980;2023-04-03T11:04:34;2.08;;;1.20;;
18822;SDS011;9540;51.550;7.980;2023-04-03T11:07:06;4.80;;;1.30;;
18822;SDS011;9540;51.550;7.980;2023-04-03T11:09:40;1.98;;;1.50;;
18822;SDS011;9540;51.550;7.980;2023-04-03T11:12:11;1.42;;;0.90;;
18822;SDS011;9540;51.550;7.980;2023-04-03T11:14:42;3.10;;;1.40;;
18822;SDS011;9540;51.550;7.980;2023-04-03T11:17:21;1.73;;;1.20;;
18822;SDS011;9540;51.550;7.980;2023-04-03T11:19:57;2.88;;;0.93;;
18822;SDS011;9540;51.550;7.980;2023-04-03T11:22:29;4.13;;;1.50;;
18822;SDS011;9540;51.550;7.980;2023-04-03T11:25:02;4.93;;;1.05;;
18822;SDS011;9540;51.550;7.980;2023-04-03T11:27:38;4.38;;;1.25;;
18822;SDS011;9540;51.550;7.980;2023-04-03T11:30:11;1.63;;;1.23;;
18822;SDS011;9540;51.550;7.980;2023-04-03T11:32:58;2.15;;;1.55;;
18822;SDS011;9540;51.550;7.980;2023-04-03T11:35:42;11.93;;;1.98;;
18822;SDS011;9540;51.550;7.980;2023-04-03T11:38:14;2.45;;;1.20;;
18822;SDS011;9540;51.550;7.980;2023-04-03T11:40:48;4.82;;;1.50;;
18822;SDS011;9540;51.550;7.980;2023-04-03T11:43:21;1.70;;;1.02;;
18822;SDS011;9540;51.550;7.980;2023-04-03T11:45:56;3.83;;;1.30;;
18822;SDS011;9540;51.550;7.980;2023-04-03T11:48:44;1.83;;;1.20;;
18822;SDS011;9540;51.550;7.980;2023-04-03T12:12:41;1.25;;;1.10;;
18822;SDS011;9540;51.550;7.980;2023-04-03T12:21:11;3.25;;;1.40;;
18822;SDS011;9540;51.550;7.980;2023-04-03T12:26:24;2.70;;;1.30;;
18822;SDS011;9540;51.550;7.980;2023-04-03T12:28:54;3.55;;;1.30;;
18822;SDS011;9540;51.550;7.980;2023-04-03T12:31:22;2.17;;;1.40;;
18822;SDS011;9540;51.550;7.980;2023-04-03T12:34:01;3.97;;;1.08;;
18822;SDS011;9540;51.550;7.980;2023-04-03T12:36:45;1.85;;;1.35;;
18822;SDS011;9540;51.550;7.980;2023-04-03T12:39:24;3.53;;;1.15;;
18822;SDS011;9540;51.550;7.980;2023-04-03T12:42:05;4.43;;;1.40;;
18822;SDS011;9540;51.550;7.980;2023-04-03T12:44:49;2.78;;;1.10;;
18822;SDS011;9540;51.550;7.980;2023-04-03T12:47:27;2.40;;;1.02;;
18822;SDS011;9540;51.550;7.980;2023-04-03T12:49:58;2.08;;;1.23;;
18822;SDS011;9540;51.550;7.980;2023-04-03T12:52:39;2.33;;;1.33;;
18822;SDS011;9540;51.550;7.980;2023-04-03T12:55:17;1.08;;;0.98;;
18822;SDS011;9540;51.550;7.980;2023-04-03T12:57:46;2.03;;;0.98;;
18822;SDS011;9540;51.550;7.980;2023-04-03T13:00:30;1.02;;;0.95;;
18822;SDS011;9540;51.550;7.980;2023-04-03T13:02:59;3.20;;;1.10;;
18822;SDS011;9540;51.550;7.980;2023-04-03T13:05:29;3.67;;;1.42;;
18822;SDS011;9540;51.550;7.980;2023-04-03T13:07:59;2.55;;;1.30;;
18822;SDS011;9540;51.550;7.980;2023-04-03T13:10:28;3.95;;;1.40;;
18822;SDS011;9540;51.550;7.980;2023-04-03T13:12:56;4.78;;;1.65;;
18822;SDS011;9540;51.550;7.980;2023-04-03T13:15:26;3.65;;;1.13;;
18822;SDS011;9540;51.550;7.980;2023-04-03T13:17:55;1.45;;;1.27;;
18822;SDS011;9540;51.550;7.980;2023-04-03T13:20:24;2.63;;;1.40;;
18822;SDS011;9540;51.550;7.980;2023-04-03T13:22:55;3.95;;;1.50;;
18822;SDS011;9540;51.550;7.980;2023-04-03T13:25:26;5.53;;;1.90;;
18822;SDS011;9540;51.550;7.980;2023-04-03T13:27:58;4.10;;;1.90;;
18822;SDS011;9540;51.550;7.980;2023-04-03T13:30:28;2.88;;;1.45;;
18822;SDS011;9540;51.550;7.980;2023-04-03T13:32:59;6.05;;;1.30;;
18822;SDS011;9540;51.550;7.980;2023-04-03T13:35:32;6.30;;;1.50;;
18822;SDS011;9540;51.550;7.980;2023-04-03T13:38:04;4.25;;;1.38;;
18822;SDS011;9540;51.550;7.980;2023-04-03T13:40:48;2.90;;;1.05;;
18822;SDS011;9540;51.550;7.980;2023-04-03T13:43:17;2.88;;;1.33;;
18822;SDS011;9540;51.550;7.980;2023-04-03T13:45:57;4.05;;;1.20;;
18822;SDS011;9540;51.550;7.980;2023-04-03T13:48:26;2.17;;;1.15;;
18822;SDS011;9540;51.550;7.980;2023-04-03T13:51:01;3.40;;;1.27;;
18822;SDS011;9540;51.550;7.980;2023-04-03T13:53:33;2.95;;;1.48;;
18822;SDS011;9540;51.550;7.980;2023-04-03T13:56:08;4.45;;;1.50;;
18822;SDS011;9540;51.550;7.980;2023-04-03T13:58:52;2.97;;;1.50;;
18822;SDS011;9540;51.550;7.980;2023-04-03T14:01:21;6.82;;;1.83;;
18822;SDS011;9540;51.550;7.980;2023-04-03T14:03:53;3.90;;;2.13;;
18822;SDS011;9540;51.550;7.980;2023-04-03T14:06:22;6.03;;;1.42;;
18822;SDS011;9540;51.550;7.980;2023-04-03T14:08:51;3.20;;;1.60;;
18822;SDS011;9540;51.550;7.980;2023-04-03T14:11:19;3.00;;;1.35;;
18822;SDS011;9540;51.550;7.980;2023-04-03T14:13:50;3.83;;;1.50;;
18822;SDS011;9540;51.550;7.980;2023-04-03T14:16:18;1.77;;;1.20;;
18822;SDS011;9540;51.550;7.980;2023-04-03T14:18:47;2.67;;;1.55;;
18822;SDS011;9540;51.550;7.980;2023-04-03T14:21:17;2.00;;;1.52;;
18822;SDS011;9540;51.550;7.980;2023-04-03T14:23:45;4.10;;;1.45;;
18822;SDS011;9540;51.550;7.980;2023-04-03T14:26:14;3.30;;;1.25;;
18822;SDS011;9540;51.550;7.980;2023-04-03T14:28:44;1.80;;;1.05;;
18822;SDS011;9540;51.550;7.980;2023-04-03T14:31:12;2.97;;;1.77;;
18822;SDS011;9540;51.550;7.980;2023-04-03T14:33:41;2.15;;;1.50;;
18822;SDS011;9540;51.550;7.980;2023-04-03T14:36:12;2.45;;;1.48;;
18822;SDS011;9540;51.550;7.980;2023-04-03T14:38:41;3.05;;;1.40;;
18822;SDS011;9540;51.550;7.980;2023-04-03T14:41:10;2.80;;;1.50;;
18822;SDS011;9540;51.550;7.980;2023-04-03T14:43:39;4.50;;;1.38;;
18822;SDS011;9540;51.550;7.980;2023-04-03T14:46:10;5.82;;;1.60;;
18822;SDS011;9540;51.550;7.980;2023-04-03T14:48:39;4.47;;;2.05;;
18822;SDS011;9540;51.550;7.980;2023-04-03T14:51:06;2.28;;;1.73;;
18822;SDS011;9540;51.550;7.980;2023-04-03T14:53:36;4.30;;;1.40;;
18822;SDS011;9540;51.550;7.980;2023-04-03T14:56:04;1.65;;;1.42;;
18822;SDS011;9540;51.550;7.980;2023-04-03T14:58:36;5.43;;;1.52;;
18822;SDS011;9540;51.550;7.980;2023-04-03T15:01:05;3.97;;;1.48;;
18822;SDS011;9540;51.550;7.980;2023-04-03T15:03:32;3.10;;;1.27;;
18822;SDS011;9540;51.550;7.980;2023-04-03T15:05:59;7.00;;;1.35;;
18822;SDS011;9540;51.550;7.980;2023-04-03T15:08:26;4.00;;;1.95;;
18822;SDS011;9540;51.550;7.980;2023-04-03T15:10:56;4.30;;;1.75;;
18822;SDS011;9540;51.550;7.980;2023-04-03T15:13:23;3.63;;;1.67;;
18822;SDS011;9540;51.550;7.980;2023-04-03T15:15:51;3.53;;;1.30;;
18822;SDS011;9540;51.550;7.980;2023-04-03T15:18:20;2.05;;;1.60;;
18822;SDS011;9540;51.550;7.980;2023-04-03T15:20:51;3.72;;;1.52;;
18822;SDS011;9540;51.550;7.980;2023-04-03T15:23:18;3.13;;;1.73;;
18822;SDS011;9540;51.550;7.980;2023-04-03T15:25:46;3.25;;;1.50;;
18822;SDS011;9540;51.550;7.980;2023-04-03T15:28:17;6.65;;;2.28;;
18822;SDS011;9540;51.550;7.980;2023-04-03T15:30:48;2.78;;;1.60;;
18822;SDS011;9540;51.550;7.980;2023-04-03T15:33:16;5.25;;;2.05;;
18822;SDS011;9540;51.550;7.980;2023-04-03T15:35:45;3.15;;;1.67;;
18822;SDS011;9540;51.550;7.980;2023-04-03T15:38:12;3.25;;;1.60;;
18822;SDS011;9540;51.550;7.980;2023-04-03T15:40:39;5.80;;;1.58;;
18822;SDS011;9540;51.550;7.980;2023-04-03T15:43:07;2.72;;;1.65;;
18822;SDS011;9540;51.550;7.980;2023-04-03T15:45:35;4.85;;;1.80;;
18822;SDS011;9540;51.550;7.980;2023-04-03T15:48:03;3.33;;;1.50;;
18822;SDS011;9540;51.550;7.980;2023-04-03T15:50:32;3.55;;;1.95;;